createdAt,value
2019-01-13T00:01:55.319Z,9.47
2019-01-13T00:04:45.819Z,9.87
2019-01-13T00:07:36.246Z,9.97
2019-01-13T00:10:26.998Z,9.97
2019-01-13T00:13:17.943Z,9.50
2019-01-13T00:16:08.823Z,9.50
2019-01-13T00:18:59.429Z,9.33
2019-01-13T00:21:49.535Z,8.90
2019-01-13T00:24:40.045Z,9.33
2019-01-13T00:27:30.530Z,9.37
2019-01-13T00:30:20.978Z,8.77
2019-01-13T00:33:11.361Z,9.67
2019-01-13T00:36:01.767Z,9.50
2019-01-13T00:38:52.183Z,9.37
2019-01-13T00:41:42.865Z,9.40
2019-01-13T00:44:33.956Z,9.20
2019-01-13T00:47:25.032Z,9.70
2019-01-13T00:50:15.916Z,9.10
2019-01-13T00:53:06.538Z,9.93
2019-01-13T00:55:57.247Z,9.63
2019-01-13T00:58:47.824Z,9.73
2019-01-13T01:01:38.184Z,9.17
2019-01-13T01:04:28.736Z,9.93
2019-01-13T01:07:18.964Z,10.27
2019-01-13T01:10:11.843Z,9.23
2019-01-13T01:13:02.273Z,9.63
2019-01-13T01:15:52.771Z,9.27
2019-01-13T01:18:43.441Z,10.00
2019-01-13T01:21:34.062Z,9.27
2019-01-13T01:24:24.667Z,9.60
2019-01-13T01:27:15.518Z,9.20
2019-01-13T01:30:10.203Z,9.50
2019-01-13T01:33:01.298Z,9.43
2019-01-13T01:35:52.049Z,8.77
2019-01-13T01:38:43.163Z,9.03
2019-01-13T01:41:33.679Z,9.03
2019-01-13T01:44:24.126Z,9.00
2019-01-13T01:47:14.417Z,9.03
2019-01-13T01:50:06.077Z,8.57
2019-01-13T01:52:56.753Z,8.50
2019-01-13T01:55:47.174Z,9.10
2019-01-13T01:58:37.843Z,8.83
2019-01-13T02:01:28.884Z,8.87
2019-01-13T02:04:19.923Z,8.67
2019-01-13T02:07:10.574Z,8.53
2019-01-13T02:10:01.274Z,9.00
2019-01-13T02:12:52.648Z,9.13
2019-01-13T02:15:43.028Z,8.97
2019-01-13T02:18:33.968Z,9.43
2019-01-13T02:21:24.622Z,8.97
2019-01-13T02:24:15.526Z,9.37
2019-01-13T02:27:06.611Z,9.23
2019-01-13T02:29:57.234Z,8.33
2019-01-13T02:32:47.819Z,9.10
2019-01-13T02:35:38.601Z,9.23
2019-01-13T02:38:29.318Z,9.20
2019-01-13T02:41:20.379Z,9.27
2019-01-13T02:44:11.000Z,9.70
2019-01-13T02:47:01.610Z,9.07
2019-01-13T02:49:53.056Z,8.63
2019-01-13T02:52:43.690Z,9.60
2019-01-13T02:55:35.094Z,9.33
2019-01-13T02:58:25.819Z,8.60
2019-01-13T03:01:16.468Z,8.73
2019-01-13T03:04:07.319Z,8.93
2019-01-13T03:06:58.045Z,8.37
2019-01-13T03:09:48.557Z,8.60
2019-01-13T03:12:39.126Z,8.53
2019-01-13T03:15:29.996Z,8.07
2019-01-13T03:18:20.441Z,7.97
2019-01-13T03:21:11.221Z,8.53
2019-01-13T03:24:01.759Z,7.90
2019-01-13T03:26:52.532Z,8.47
2019-01-13T03:29:43.096Z,7.87
2019-01-13T03:32:33.928Z,7.57
2019-01-13T03:35:24.802Z,7.97
2019-01-13T03:38:15.517Z,8.00
2019-01-13T03:41:06.322Z,8.03
2019-01-13T03:43:57.269Z,8.37
2019-01-13T03:46:48.021Z,7.97
2019-01-13T03:49:38.563Z,7.63
2019-01-13T03:52:30.684Z,8.00
2019-01-13T03:55:22.986Z,7.20
2019-01-13T03:58:13.586Z,7.20
2019-01-13T04:01:04.390Z,7.40
2019-01-13T04:03:54.817Z,7.03
2019-01-13T04:06:45.517Z,7.00
2019-01-13T04:09:36.286Z,7.20
2019-01-13T04:12:26.509Z,6.70
2019-01-13T04:15:47.997Z,6.57
2019-01-13T04:18:38.415Z,7.23
2019-01-13T04:21:29.134Z,6.63
2019-01-13T04:24:19.675Z,6.83
2019-01-13T04:27:10.286Z,7.07
2019-01-13T04:30:00.691Z,6.30
2019-01-13T04:32:51.325Z,7.07
2019-01-13T04:35:41.919Z,6.53
2019-01-13T04:38:32.646Z,7.27
2019-01-13T04:41:23.397Z,6.60
2019-01-13T04:44:13.627Z,6.87
2019-01-13T04:47:04.008Z,6.70
2019-01-13T04:49:54.534Z,6.30
2019-01-13T04:52:45.459Z,6.70
2019-01-13T04:55:36.090Z,6.73
2019-01-13T04:58:27.097Z,6.40
2019-01-13T05:01:18.013Z,6.20
2019-01-13T05:04:08.636Z,6.50
2019-01-13T05:06:59.297Z,6.50
2019-01-13T05:09:49.934Z,6.93
2019-01-13T05:12:40.529Z,6.43
2019-01-13T05:15:31.382Z,6.00
2019-01-13T05:18:24.618Z,6.90
2019-01-13T05:21:16.028Z,6.87
2019-01-13T05:24:06.567Z,6.53
2019-01-13T05:26:57.161Z,6.60
2019-01-13T05:29:47.478Z,6.97
2019-01-13T05:32:38.120Z,6.80
2019-01-13T05:35:28.797Z,6.37
2019-01-13T05:38:19.359Z,6.57
2019-01-13T05:41:09.945Z,7.03
2019-01-13T05:44:00.709Z,7.00
2019-01-13T05:46:51.515Z,6.13
2019-01-13T05:49:42.820Z,6.20
2019-01-13T05:52:33.471Z,6.17
2019-01-13T05:55:24.745Z,6.47
2019-01-13T05:58:15.022Z,6.23
2019-01-13T06:01:06.736Z,6.37
2019-01-13T06:03:57.293Z,6.33
2019-01-13T06:06:48.073Z,6.03
2019-01-13T06:09:38.720Z,5.67
2019-01-13T06:12:29.375Z,6.07
2019-01-13T06:15:22.007Z,5.77
2019-01-13T06:18:13.582Z,6.17
2019-01-13T06:21:04.138Z,6.30
2019-01-13T06:23:54.839Z,6.13
2019-01-13T06:26:45.127Z,5.83
2019-01-13T06:29:35.827Z,6.13
2019-01-13T06:32:26.657Z,6.33
2019-01-13T06:35:17.428Z,6.10
2019-01-13T06:38:08.047Z,5.77
2019-01-13T06:40:58.668Z,5.73
2019-01-13T06:43:49.000Z,5.60
2019-01-13T06:46:39.427Z,5.57
2019-01-13T06:49:30.173Z,5.60
2019-01-13T06:52:20.652Z,5.50
2019-01-13T06:55:10.949Z,5.60
2019-01-13T06:58:01.456Z,5.40
2019-01-13T07:00:52.353Z,5.20
2019-01-13T07:03:43.104Z,5.30
2019-01-13T07:06:34.507Z,5.60
2019-01-13T07:09:25.766Z,5.50
2019-01-13T07:12:16.361Z,5.07
2019-01-13T07:15:08.986Z,5.17
2019-01-13T07:17:59.396Z,5.10
2019-01-13T07:20:50.216Z,5.03
2019-01-13T07:23:40.739Z,4.97
2019-01-13T07:26:31.530Z,4.70
2019-01-13T07:29:22.226Z,5.17
2019-01-13T07:32:13.003Z,4.97
2019-01-13T07:35:03.441Z,5.10
2019-01-13T07:37:54.377Z,4.77
2019-01-13T07:40:44.677Z,4.87
2019-01-13T07:43:35.505Z,4.87
2019-01-13T07:46:26.373Z,4.93
2019-01-13T07:49:17.182Z,4.33
2019-01-13T07:52:07.993Z,4.57
2019-01-13T07:54:58.773Z,4.30
2019-01-13T07:57:49.497Z,4.27
2019-01-13T08:00:40.688Z,4.20
2019-01-13T08:03:30.958Z,4.33
2019-01-13T08:06:21.653Z,4.50
2019-01-13T08:09:12.284Z,4.53
2019-01-13T08:12:02.938Z,4.50
2019-01-13T08:14:53.605Z,4.23
2019-01-13T08:17:44.375Z,4.33
2019-01-13T08:20:34.932Z,4.33
2019-01-13T08:23:25.611Z,4.50
2019-01-13T08:26:16.186Z,4.40
2019-01-13T08:29:26.684Z,4.60
2019-01-13T08:32:16.909Z,4.60
2019-01-13T08:35:14.114Z,4.30
2019-01-13T08:38:04.196Z,5.30
2019-01-13T08:40:54.760Z,4.73
2019-01-13T08:43:44.898Z,5.40
2019-01-13T08:46:35.478Z,4.83
2019-01-13T08:49:26.230Z,4.40
2019-01-13T08:52:17.371Z,4.93
2019-01-13T08:55:08.513Z,4.50
2019-01-13T08:57:59.352Z,5.40
2019-01-13T09:00:50.033Z,4.67
2019-01-13T09:03:40.801Z,5.40
2019-01-13T09:06:30.937Z,5.20
2019-01-13T09:09:21.764Z,5.07
2019-01-13T09:12:12.384Z,5.00
2019-01-13T09:15:03.024Z,4.90
2019-01-13T09:17:53.551Z,5.07
2019-01-13T09:20:44.594Z,4.80
2019-01-13T09:23:35.457Z,4.70
2019-01-13T09:26:26.256Z,4.40
2019-01-13T09:29:16.704Z,5.37
2019-01-13T09:32:07.639Z,4.80
2019-01-13T09:34:58.170Z,5.00
2019-01-13T09:37:48.794Z,5.40
2019-01-13T09:40:39.400Z,6.10
2019-01-13T09:43:30.292Z,5.57
2019-01-13T09:46:20.624Z,5.20
2019-01-13T09:49:11.367Z,5.10
2019-01-13T09:52:01.904Z,5.67
2019-01-13T09:54:52.807Z,5.13
2019-01-13T09:57:43.374Z,6.40
2019-01-13T10:00:38.167Z,5.83
2019-01-13T10:03:30.178Z,5.33
2019-01-13T10:06:20.892Z,6.00
2019-01-13T10:09:11.861Z,6.13
2019-01-13T10:12:02.504Z,5.40
2019-01-13T10:14:52.897Z,5.40
2019-01-13T10:17:43.366Z,5.40
2019-01-13T10:20:34.235Z,6.17
2019-01-13T10:23:24.778Z,5.40
2019-01-13T10:26:15.366Z,5.73
2019-01-13T10:29:08.789Z,5.27
2019-01-13T10:31:59.225Z,5.97
2019-01-13T10:34:49.926Z,5.33
2019-01-13T10:37:40.546Z,5.50
2019-01-13T10:40:32.290Z,5.47
2019-01-13T10:43:22.809Z,5.47
2019-01-13T10:46:13.523Z,5.63
2019-01-13T10:49:04.116Z,5.10
2019-01-13T10:51:54.823Z,5.50
2019-01-13T10:54:46.179Z,5.80
2019-01-13T10:57:36.546Z,6.17
2019-01-13T11:00:29.242Z,5.80
2019-01-13T11:03:22.534Z,5.50
2019-01-13T11:06:12.862Z,5.73
2019-01-13T11:09:06.818Z,5.07
2019-01-13T11:11:57.201Z,5.80
2019-01-13T11:14:47.814Z,5.57
2019-01-13T11:17:38.474Z,5.30
2019-01-13T11:20:31.717Z,6.07
2019-01-13T11:23:21.923Z,7.17
2019-01-13T11:26:13.259Z,5.57
2019-01-13T11:29:04.043Z,5.93
2019-01-13T11:31:55.036Z,6.20
2019-01-13T11:34:45.637Z,5.53
2019-01-13T11:37:36.049Z,6.07
2019-01-13T11:40:27.594Z,5.37
2019-01-13T11:43:17.873Z,5.90
2019-01-13T11:46:08.248Z,5.63
2019-01-13T11:48:59.777Z,5.87
2019-01-13T11:51:50.427Z,6.13
2019-01-13T11:54:41.291Z,5.43
2019-01-13T11:57:31.686Z,5.83
2019-01-13T12:00:31.882Z,5.87
2019-01-13T12:03:22.336Z,5.60
2019-01-13T12:06:13.027Z,6.33
2019-01-13T12:09:04.135Z,7.17
2019-01-13T12:11:54.515Z,5.57
2019-01-13T12:14:45.069Z,5.40
2019-01-13T12:17:35.572Z,5.40
2019-01-13T12:20:26.161Z,5.50
2019-01-13T12:23:16.642Z,5.47
2019-01-13T12:26:07.247Z,5.90
2019-01-13T12:28:57.937Z,5.70
2019-01-13T12:31:48.921Z,5.80
2019-01-13T12:34:39.845Z,5.47
2019-01-13T12:37:30.611Z,6.10
2019-01-13T12:40:22.767Z,5.57
2019-01-13T12:43:13.258Z,5.87
2019-01-13T12:46:04.017Z,6.07
2019-01-13T12:48:54.218Z,5.00
2019-01-13T12:51:44.598Z,5.27
2019-01-13T12:54:35.237Z,5.57
2019-01-13T12:57:26.224Z,5.10
2019-01-13T13:00:17.484Z,4.80
2019-01-13T13:03:08.223Z,4.40
2019-01-13T13:05:58.956Z,4.63
2019-01-13T13:08:49.695Z,4.23
2019-01-13T13:11:40.216Z,4.47
2019-01-13T13:14:31.132Z,4.50
2019-01-13T13:17:21.559Z,4.40
2019-01-13T13:20:12.722Z,4.37
2019-01-13T13:23:06.588Z,4.23
2019-01-13T13:25:57.225Z,4.50
2019-01-13T13:28:47.988Z,4.13
2019-01-13T13:31:38.564Z,3.83
2019-01-13T13:34:29.257Z,4.03
2019-01-13T13:37:20.260Z,3.77
2019-01-13T13:40:12.127Z,4.00
2019-01-13T13:43:02.966Z,3.80
2019-01-13T13:45:53.731Z,4.17
2019-01-13T13:48:44.466Z,3.83
2019-01-13T13:51:35.019Z,4.40
2019-01-13T13:54:28.792Z,4.50
2019-01-13T13:57:19.471Z,4.00
2019-01-13T14:00:14.616Z,4.27
2019-01-13T14:03:05.734Z,3.60
2019-01-13T14:05:56.476Z,4.10
2019-01-13T14:08:47.205Z,3.90
2019-01-13T14:11:37.841Z,4.20
2019-01-13T14:14:28.508Z,3.90
2019-01-13T14:17:19.245Z,3.90
2019-01-13T14:20:12.569Z,4.10
2019-01-13T14:23:03.376Z,4.20
2019-01-13T14:25:53.996Z,3.93
2019-01-13T14:28:44.480Z,4.20
2019-01-13T14:31:36.275Z,3.97
2019-01-13T14:34:27.704Z,4.40
2019-01-13T14:37:18.164Z,4.30
2019-01-13T14:40:11.670Z,4.17
2019-01-13T14:43:02.348Z,4.50
2019-01-13T14:45:52.819Z,4.63
2019-01-13T14:48:43.483Z,4.80
2019-01-13T14:51:34.091Z,3.90
2019-01-13T14:54:24.876Z,3.67
2019-01-13T14:57:15.684Z,4.07
2019-01-13T15:00:09.759Z,4.10
2019-01-13T15:03:00.356Z,4.00
2019-01-13T15:05:51.219Z,3.83
2019-01-13T15:08:41.622Z,3.93
2019-01-13T15:11:32.123Z,4.20
2019-01-13T15:14:23.046Z,3.80
2019-01-13T15:17:13.692Z,3.53
2019-01-13T15:20:04.267Z,3.37
2019-01-13T15:22:54.551Z,3.20
2019-01-13T15:25:45.426Z,2.87
2019-01-13T15:28:36.169Z,2.90
2019-01-13T15:31:27.063Z,2.90
2019-01-13T15:34:17.712Z,2.47
2019-01-13T15:37:08.614Z,2.60
2019-01-13T15:39:58.764Z,2.67
2019-01-13T15:42:49.390Z,2.43
2019-01-13T15:45:40.062Z,2.67
2019-01-13T15:48:30.568Z,2.67
2019-01-13T15:51:20.873Z,2.80
2019-01-13T15:54:11.217Z,3.37
2019-01-13T15:57:01.466Z,3.70
2019-01-13T15:59:52.718Z,4.13
2019-01-13T16:02:43.593Z,3.60
2019-01-13T16:05:34.466Z,3.87
2019-01-13T16:08:24.809Z,4.13
2019-01-13T16:11:15.163Z,3.97
2019-01-13T16:14:05.595Z,4.10
2019-01-13T16:16:56.163Z,4.53
2019-01-13T16:19:46.845Z,4.53
2019-01-13T16:22:37.701Z,4.43
2019-01-13T16:25:27.938Z,4.63
2019-01-13T16:28:18.148Z,5.07
2019-01-13T16:31:08.723Z,4.60
2019-01-13T16:33:59.643Z,5.27
2019-01-13T16:36:50.562Z,5.50
2019-01-13T16:39:42.135Z,5.10
2019-01-13T16:42:32.955Z,5.60
2019-01-13T16:45:24.153Z,5.53
2019-01-13T16:48:14.651Z,5.23
2019-01-13T16:51:06.000Z,5.73
2019-01-13T16:53:56.438Z,5.90
2019-01-13T16:56:47.025Z,6.03
2019-01-13T16:59:37.736Z,6.10
2019-01-13T17:02:33.037Z,6.67
2019-01-13T17:05:21.367Z,6.63
2019-01-13T17:08:12.084Z,7.33
2019-01-13T17:11:02.363Z,7.30
2019-01-13T17:13:52.989Z,6.97
2019-01-13T17:16:43.253Z,7.07
2019-01-13T17:19:34.305Z,6.47
2019-01-13T17:22:25.104Z,7.23
2019-01-13T17:25:21.587Z,6.77
2019-01-13T17:28:11.902Z,6.27
2019-01-13T17:31:02.723Z,6.63
2019-01-13T17:33:55.250Z,6.97
2019-01-13T17:36:45.754Z,6.60
2019-01-13T17:39:36.096Z,6.70
2019-01-13T17:42:26.819Z,6.20
2019-01-13T17:45:18.753Z,6.57
2019-01-13T17:48:13.997Z,7.00
2019-01-13T17:51:04.472Z,6.47
2019-01-13T17:53:55.459Z,6.80
2019-01-13T17:56:46.138Z,6.43
2019-01-13T17:59:37.035Z,6.70
2019-01-13T18:02:28.019Z,6.00
2019-01-13T18:05:18.621Z,6.33
2019-01-13T18:08:08.879Z,6.13
2019-01-13T18:10:59.559Z,5.87
2019-01-13T18:13:50.272Z,5.83
2019-01-13T18:16:40.672Z,6.10
2019-01-13T18:19:34.422Z,5.97
2019-01-13T18:22:29.939Z,6.23
2019-01-13T18:25:20.601Z,6.50
2019-01-13T18:28:11.061Z,6.17
2019-01-13T18:31:01.390Z,6.60
2019-01-13T18:33:51.994Z,5.93
2019-01-13T18:36:42.572Z,6.67
2019-01-13T18:39:33.006Z,6.50
2019-01-13T18:42:23.634Z,7.10
2019-01-13T18:45:14.771Z,6.17
2019-01-13T18:48:05.481Z,6.13
2019-01-13T18:50:56.351Z,7.17
2019-01-13T18:53:46.777Z,6.60
2019-01-13T18:56:37.406Z,6.77
2019-01-13T18:59:27.903Z,6.50
2019-01-13T19:02:18.686Z,6.93
2019-01-13T19:05:10.751Z,6.60
2019-01-13T19:08:01.257Z,6.53
2019-01-13T19:10:55.852Z,6.67
2019-01-13T19:14:27.066Z,7.10
2019-01-13T19:17:22.404Z,6.90
2019-01-13T19:20:24.423Z,6.63
2019-01-13T19:23:18.238Z,6.70
2019-01-13T19:26:08.595Z,6.50
2019-01-13T19:28:59.315Z,6.53
2019-01-13T19:31:50.267Z,6.77
2019-01-13T19:34:40.989Z,7.23
2019-01-13T19:37:31.761Z,7.17
2019-01-13T19:40:22.430Z,7.03
2019-01-13T19:43:13.369Z,7.43
2019-01-13T19:46:03.905Z,7.10
2019-01-13T19:48:54.626Z,6.73
2019-01-13T19:51:45.098Z,6.30
2019-01-13T19:54:35.862Z,5.97
2019-01-13T19:57:26.745Z,6.17
2019-01-13T20:00:20.949Z,5.63
2019-01-13T20:03:12.617Z,5.57
2019-01-13T20:06:03.191Z,6.23
2019-01-13T20:08:54.237Z,6.43
2019-01-13T20:11:46.178Z,6.50
2019-01-13T20:14:37.226Z,7.00
2019-01-13T20:17:27.924Z,7.03
2019-01-13T20:20:18.520Z,7.17
2019-01-13T20:23:09.473Z,6.53
2019-01-13T20:26:00.131Z,7.03
2019-01-13T20:28:50.982Z,7.00
2019-01-13T20:31:41.462Z,6.87
2019-01-13T20:34:32.218Z,6.93
2019-01-13T20:37:22.783Z,7.33
2019-01-13T20:40:13.504Z,6.43
2019-01-13T20:43:04.094Z,6.57
2019-01-13T20:45:54.666Z,6.17
2019-01-13T20:48:45.596Z,6.40
2019-01-13T20:51:36.819Z,6.70
2019-01-13T20:54:27.528Z,6.60
2019-01-13T20:57:18.226Z,7.03
2019-01-13T21:00:11.765Z,6.73
2019-01-13T21:03:02.311Z,6.30
2019-01-13T21:05:52.884Z,6.27
2019-01-13T21:08:44.522Z,6.07
2019-01-13T21:11:35.074Z,6.90
2019-01-13T21:14:26.066Z,6.53
2019-01-13T21:17:17.022Z,6.13
2019-01-13T21:20:07.740Z,6.07
2019-01-13T21:22:58.294Z,5.17
2019-01-13T21:25:49.020Z,5.77
2019-01-13T21:28:39.618Z,5.53
2019-01-13T21:31:30.492Z,5.50
2019-01-13T21:34:20.846Z,4.97
2019-01-13T21:37:11.369Z,5.13
2019-01-13T21:40:01.581Z,4.93
2019-01-13T21:42:51.917Z,4.87
2019-01-13T21:45:42.530Z,5.00
2019-01-13T21:48:33.125Z,4.90
2019-01-13T21:51:24.024Z,4.40
2019-01-13T21:54:14.957Z,4.77
2019-01-13T21:57:05.587Z,4.70
2019-01-13T21:59:56.329Z,4.80
2019-01-13T22:02:46.617Z,4.10
2019-01-13T22:05:41.154Z,4.27
2019-01-13T22:08:29.359Z,4.23
2019-01-13T22:11:20.347Z,4.00
2019-01-13T22:14:11.022Z,4.20
2019-01-13T22:17:01.656Z,4.17
2019-01-13T22:19:52.506Z,3.73
2019-01-13T22:22:43.127Z,3.77
2019-01-13T22:25:33.389Z,4.10
2019-01-13T22:28:23.636Z,4.20
2019-01-13T22:31:14.577Z,3.80
2019-01-13T22:34:05.154Z,4.40
2019-01-13T22:36:55.548Z,4.10
2019-01-13T22:39:46.014Z,4.47
2019-01-13T22:42:36.377Z,4.60
2019-01-13T22:45:27.059Z,4.63
2019-01-13T22:48:17.622Z,4.73
2019-01-13T22:51:08.729Z,4.67
2019-01-13T22:53:59.280Z,4.33
2019-01-13T22:56:50.003Z,5.20
2019-01-13T22:59:40.704Z,5.13
2019-01-13T23:02:31.437Z,5.43
2019-01-13T23:05:23.259Z,5.43
2019-01-13T23:08:14.164Z,5.60
2019-01-13T23:11:04.615Z,5.37
2019-01-13T23:13:55.566Z,4.93
2019-01-13T23:16:45.973Z,6.03
2019-01-13T23:19:36.528Z,5.77
2019-01-13T23:22:26.926Z,5.50
2019-01-13T23:25:17.446Z,5.40
2019-01-13T23:28:07.870Z,6.20
2019-01-13T23:30:58.482Z,6.20
2019-01-13T23:33:49.387Z,6.10
2019-01-13T23:36:39.878Z,6.63
2019-01-13T23:39:30.445Z,6.77
2019-01-13T23:42:21.045Z,6.53
2019-01-13T23:45:13.450Z,6.97
2019-01-13T23:48:04.046Z,7.70
2019-01-13T23:50:54.997Z,6.63
2019-01-13T23:53:45.558Z,7.53
2019-01-13T23:56:36.160Z,7.23
2019-01-13T23:59:26.960Z,7.70
